createdAt,value
2019-02-11T00:18:49.963Z,5.26
2019-02-11T00:47:27.905Z,5.1
2019-02-11T01:16:05.791Z,4.55
2019-02-11T01:44:41.939Z,4.04
2019-02-11T02:13:15.591Z,3.92
2019-02-11T02:41:53.388Z,3.76
2019-02-11T03:10:34.123Z,3.56
2019-02-11T03:39:04.516Z,3.55
2019-02-11T04:07:40.607Z,3.51
2019-02-11T04:36:15.535Z,3.59
2019-02-11T05:04:54.233Z,3.66
2019-02-11T05:33:32.847Z,3.77
2019-02-11T06:02:12.138Z,3.88
2019-02-11T06:30:52.845Z,4.14
2019-02-11T06:59:33.730Z,4.07
2019-02-11T07:28:08.058Z,4.03
2019-02-11T07:56:45.458Z,4.36
2019-02-11T08:25:27.691Z,5.24
2019-02-11T08:54:04.341Z,5.79
2019-02-11T09:22:46.404Z,5.54
2019-02-11T09:51:18.496Z,6.08
2019-02-11T10:19:58.558Z,6.25
2019-02-11T10:48:36.747Z,6.09
2019-02-11T11:17:18.231Z,6.21
2019-02-11T11:45:53.862Z,6.23
2019-02-11T12:14:36.418Z,6.29
2019-02-11T12:43:05.794Z,5.84
2019-02-11T13:11:43.088Z,6.14
2019-02-11T13:40:18.018Z,5.94
2019-02-11T14:09:03.113Z,6.66
2019-02-11T14:37:36.257Z,5.92
2019-02-11T15:06:11.926Z,5.41
2019-02-11T15:34:49.298Z,4.89
2019-02-11T16:03:20.997Z,4.56
2019-02-11T16:32:01.215Z,4.53
2019-02-11T17:00:34.175Z,3.14
2019-02-11T17:29:09.074Z,2.8
2019-02-11T17:57:47.768Z,2.89
2019-02-11T18:26:26.733Z,3
2019-02-11T18:55:05.215Z,3.04
2019-02-11T19:23:42.456Z,2.77
2019-02-11T19:52:21.470Z,2.61
2019-02-11T20:21:01.001Z,2.63
2019-02-11T20:49:38.508Z,2.53
2019-02-11T21:18:17.693Z,2.72
2019-02-11T21:46:59.003Z,2.8
2019-02-11T22:15:32.441Z,2.95
2019-02-11T22:44:05.431Z,3.07
2019-02-11T23:12:43.829Z,3.27
2019-02-11T23:41:18.670Z,3.26
